sensor_id;sensor_type;location;lat;lon;timestamp;P1;durP1;ratioP1;P2;durP2;ratioP2
29092;SDS011;16167;48.768;14.984;2022-11-20T00:01:04;79.57;;;32.72;;
29092;SDS011;16167;48.768;14.984;2022-11-20T00:03:33;80.63;;;32.83;;
29092;SDS011;16167;48.768;14.984;2022-11-20T00:06:01;79.82;;;32.13;;
29092;SDS011;16167;48.768;14.984;2022-11-20T00:08:29;89.97;;;33.97;;
29092;SDS011;16167;48.768;14.984;2022-11-20T00:11:03;83.88;;;33.42;;
29092;SDS011;16167;48.768;14.984;2022-11-20T00:13:31;81.53;;;33.03;;
29092;SDS011;16167;48.768;14.984;2022-11-20T00:16:00;71.40;;;30.40;;
29092;SDS011;16167;48.768;14.984;2022-11-20T00:18:29;79.93;;;31.48;;
29092;SDS011;16167;48.768;14.984;2022-11-20T00:21:00;80.18;;;31.80;;
29092;SDS011;16167;48.768;14.984;2022-11-20T00:23:28;79.30;;;32.13;;
29092;SDS011;16167;48.768;14.984;2022-11-20T00:25:56;82.90;;;32.85;;
29092;SDS011;16167;48.768;14.984;2022-11-20T00:28:30;81.45;;;31.63;;
29092;SDS011;16167;48.768;14.984;2022-11-20T00:31:02;82.47;;;32.67;;
29092;SDS011;16167;48.768;14.984;2022-11-20T00:33:32;83.50;;;31.33;;
29092;SDS011;16167;48.768;14.984;2022-11-20T00:36:00;62.70;;;26.35;;
29092;SDS011;16167;48.768;14.984;2022-11-20T00:40:58;81.97;;;31.48;;
29092;SDS011;16167;48.768;14.984;2022-11-20T00:43:28;82.13;;;31.50;;
29092;SDS011;16167;48.768;14.984;2022-11-20T00:45:57;77.10;;;32.53;;
29092;SDS011;16167;48.768;14.984;2022-11-20T00:48:25;81.50;;;32.05;;
29092;SDS011;16167;48.768;14.984;2022-11-20T00:50:54;89.60;;;31.95;;
29092;SDS011;16167;48.768;14.984;2022-11-20T00:53:22;82.93;;;32.60;;
29092;SDS011;16167;48.768;14.984;2022-11-20T00:55:54;83.90;;;32.08;;
29092;SDS011;16167;48.768;14.984;2022-11-20T00:58:22;78.07;;;32.03;;
29092;SDS011;16167;48.768;14.984;2022-11-20T01:00:52;76.95;;;32.15;;
29092;SDS011;16167;48.768;14.984;2022-11-20T01:03:26;78.43;;;30.42;;
29092;SDS011;16167;48.768;14.984;2022-11-20T01:05:58;77.70;;;30.70;;
29092;SDS011;16167;48.768;14.984;2022-11-20T01:08:28;77.47;;;30.45;;
29092;SDS011;16167;48.768;14.984;2022-11-20T01:11:00;80.85;;;33.03;;
29092;SDS011;16167;48.768;14.984;2022-11-20T01:13:29;78.47;;;31.65;;
29092;SDS011;16167;48.768;14.984;2022-11-20T01:16:09;83.53;;;33.00;;
29092;SDS011;16167;48.768;14.984;2022-11-20T01:18:39;80.75;;;31.77;;
29092;SDS011;16167;48.768;14.984;2022-11-20T01:21:10;84.07;;;32.35;;
29092;SDS011;16167;48.768;14.984;2022-11-20T01:23:40;79.30;;;32.15;;
29092;SDS011;16167;48.768;14.984;2022-11-20T01:26:10;83.45;;;33.13;;
29092;SDS011;16167;48.768;14.984;2022-11-20T01:28:39;76.78;;;31.70;;
29092;SDS011;16167;48.768;14.984;2022-11-20T01:31:13;68.30;;;26.05;;
29092;SDS011;16167;48.768;14.984;2022-11-20T01:33:43;78.80;;;32.83;;
29092;SDS011;16167;48.768;14.984;2022-11-20T01:36:12;80.80;;;32.42;;
29092;SDS011;16167;48.768;14.984;2022-11-20T01:38:42;77.97;;;30.13;;
29092;SDS011;16167;48.768;14.984;2022-11-20T01:41:10;74.53;;;28.92;;
29092;SDS011;16167;48.768;14.984;2022-11-20T01:44:01;84.82;;;32.72;;
29092;SDS011;16167;48.768;14.984;2022-11-20T01:46:30;80.00;;;33.05;;
29092;SDS011;16167;48.768;14.984;2022-11-20T01:49:00;87.38;;;33.13;;
29092;SDS011;16167;48.768;14.984;2022-11-20T01:51:32;82.00;;;32.70;;
29092;SDS011;16167;48.768;14.984;2022-11-20T01:54:03;81.45;;;32.25;;
29092;SDS011;16167;48.768;14.984;2022-11-20T01:56:35;77.95;;;30.92;;
29092;SDS011;16167;48.768;14.984;2022-11-20T01:59:07;73.72;;;30.52;;
29092;SDS011;16167;48.768;14.984;2022-11-20T02:01:38;79.85;;;32.67;;
29092;SDS011;16167;48.768;14.984;2022-11-20T02:04:07;79.20;;;31.80;;
29092;SDS011;16167;48.768;14.984;2022-11-20T02:06:39;85.88;;;33.10;;
29092;SDS011;16167;48.768;14.984;2022-11-20T02:09:10;80.45;;;32.63;;
29092;SDS011;16167;48.768;14.984;2022-11-20T02:11:38;88.75;;;33.10;;
29092;SDS011;16167;48.768;14.984;2022-11-20T02:14:07;80.70;;;32.45;;
29092;SDS011;16167;48.768;14.984;2022-11-20T02:16:35;77.60;;;32.38;;
29092;SDS011;16167;48.768;14.984;2022-11-20T02:19:11;85.50;;;32.75;;
29092;SDS011;16167;48.768;14.984;2022-11-20T02:21:47;88.35;;;33.17;;
29092;SDS011;16167;48.768;14.984;2022-11-20T02:24:22;75.47;;;30.70;;
29092;SDS011;16167;48.768;14.984;2022-11-20T02:26:51;91.72;;;33.28;;
29092;SDS011;16167;48.768;14.984;2022-11-20T02:29:23;95.55;;;33.75;;
29092;SDS011;16167;48.768;14.984;2022-11-20T02:31:53;86.65;;;34.10;;
29092;SDS011;16167;48.768;14.984;2022-11-20T02:34:23;80.43;;;32.85;;
29092;SDS011;16167;48.768;14.984;2022-11-20T02:36:51;79.47;;;32.25;;
29092;SDS011;16167;48.768;14.984;2022-11-20T02:39:20;56.40;;;23.45;;
29092;SDS011;16167;48.768;14.984;2022-11-20T02:41:52;79.85;;;32.05;;
29092;SDS011;16167;48.768;14.984;2022-11-20T02:44:21;78.93;;;32.78;;
29092;SDS011;16167;48.768;14.984;2022-11-20T02:46:49;73.22;;;30.73;;
29092;SDS011;16167;48.768;14.984;2022-11-20T02:49:17;78.97;;;32.22;;
29092;SDS011;16167;48.768;14.984;2022-11-20T02:51:45;73.03;;;29.97;;
29092;SDS011;16167;48.768;14.984;2022-11-20T02:54:13;82.43;;;32.28;;
29092;SDS011;16167;48.768;14.984;2022-11-20T02:56:43;84.40;;;31.85;;
29092;SDS011;16167;48.768;14.984;2022-11-20T02:59:11;79.85;;;32.15;;
29092;SDS011;16167;48.768;14.984;2022-11-20T03:01:39;73.18;;;30.55;;
29092;SDS011;16167;48.768;14.984;2022-11-20T03:04:07;73.35;;;30.88;;
29092;SDS011;16167;48.768;14.984;2022-11-20T03:06:35;80.63;;;31.83;;
29092;SDS011;16167;48.768;14.984;2022-11-20T03:09:03;82.50;;;32.60;;
29092;SDS011;16167;48.768;14.984;2022-11-20T03:11:31;75.32;;;30.88;;
29092;SDS011;16167;48.768;14.984;2022-11-20T03:14:02;71.30;;;29.48;;
29092;SDS011;16167;48.768;14.984;2022-11-20T03:16:30;70.32;;;30.63;;
29092;SDS011;16167;48.768;14.984;2022-11-20T03:18:59;80.32;;;31.50;;
29092;SDS011;16167;48.768;14.984;2022-11-20T03:21:27;79.78;;;32.45;;
29092;SDS011;16167;48.768;14.984;2022-11-20T03:23:55;80.65;;;30.65;;
29092;SDS011;16167;48.768;14.984;2022-11-20T03:26:24;77.88;;;31.25;;
29092;SDS011;16167;48.768;14.984;2022-11-20T03:28:54;79.72;;;31.85;;
29092;SDS011;16167;48.768;14.984;2022-11-20T03:31:25;78.18;;;31.30;;
29092;SDS011;16167;48.768;14.984;2022-11-20T03:33:55;78.07;;;30.83;;
29092;SDS011;16167;48.768;14.984;2022-11-20T03:36:24;76.00;;;30.05;;
29092;SDS011;16167;48.768;14.984;2022-11-20T03:38:53;71.30;;;29.95;;
29092;SDS011;16167;48.768;14.984;2022-11-20T03:41:22;81.00;;;31.08;;
29092;SDS011;16167;48.768;14.984;2022-11-20T03:43:52;79.40;;;32.45;;
29092;SDS011;16167;48.768;14.984;2022-11-20T03:46:21;75.00;;;31.13;;
29092;SDS011;16167;48.768;14.984;2022-11-20T03:48:51;72.32;;;28.65;;
29092;SDS011;16167;48.768;14.984;2022-11-20T03:51:20;75.03;;;30.85;;
29092;SDS011;16167;48.768;14.984;2022-11-20T03:53:50;84.75;;;33.53;;
29092;SDS011;16167;48.768;14.984;2022-11-20T03:56:21;84.90;;;33.28;;
29092;SDS011;16167;48.768;14.984;2022-11-20T03:58:51;78.07;;;31.98;;
29092;SDS011;16167;48.768;14.984;2022-11-20T04:01:20;77.70;;;31.63;;
29092;SDS011;16167;48.768;14.984;2022-11-20T04:03:51;78.05;;;30.48;;
29092;SDS011;16167;48.768;14.984;2022-11-20T04:06:21;80.00;;;31.80;;
29092;SDS011;16167;48.768;14.984;2022-11-20T04:08:50;73.60;;;28.67;;
29092;SDS011;16167;48.768;14.984;2022-11-20T04:11:20;57.75;;;25.88;;
29092;SDS011;16167;48.768;14.984;2022-11-20T04:13:50;70.40;;;30.08;;
29092;SDS011;16167;48.768;14.984;2022-11-20T04:18:52;65.30;;;26.10;;
29092;SDS011;16167;48.768;14.984;2022-11-20T04:21:21;69.22;;;29.35;;
29092;SDS011;16167;48.768;14.984;2022-11-20T04:23:50;57.90;;;22.70;;
29092;SDS011;16167;48.768;14.984;2022-11-20T04:26:19;76.75;;;31.30;;
29092;SDS011;16167;48.768;14.984;2022-11-20T04:28:47;64.15;;;28.23;;
29092;SDS011;16167;48.768;14.984;2022-11-20T04:31:16;70.13;;;29.90;;
29092;SDS011;16167;48.768;14.984;2022-11-20T04:33:46;76.47;;;30.50;;
29092;SDS011;16167;48.768;14.984;2022-11-20T04:36:16;70.65;;;30.17;;
29092;SDS011;16167;48.768;14.984;2022-11-20T04:38:46;78.45;;;31.67;;
29092;SDS011;16167;48.768;14.984;2022-11-20T04:41:22;75.72;;;31.60;;
29092;SDS011;16167;48.768;14.984;2022-11-20T04:43:52;65.78;;;29.45;;
29092;SDS011;16167;48.768;14.984;2022-11-20T04:46:26;71.70;;;31.33;;
29092;SDS011;16167;48.768;14.984;2022-11-20T04:51:24;71.10;;;27.60;;
29092;SDS011;16167;48.768;14.984;2022-11-20T04:53:53;71.57;;;29.05;;
29092;SDS011;16167;48.768;14.984;2022-11-20T04:56:21;70.63;;;29.48;;
29092;SDS011;16167;48.768;14.984;2022-11-20T04:58:49;78.78;;;31.50;;
29092;SDS011;16167;48.768;14.984;2022-11-20T05:01:18;74.28;;;31.23;;
29092;SDS011;16167;48.768;14.984;2022-11-20T05:03:47;69.68;;;29.60;;
29092;SDS011;16167;48.768;14.984;2022-11-20T05:06:16;71.03;;;29.35;;
29092;SDS011;16167;48.768;14.984;2022-11-20T05:08:46;70.53;;;29.48;;
29092;SDS011;16167;48.768;14.984;2022-11-20T05:13:43;75.32;;;30.52;;
29092;SDS011;16167;48.768;14.984;2022-11-20T05:16:13;73.85;;;28.98;;
29092;SDS011;16167;48.768;14.984;2022-11-20T05:18:43;67.72;;;28.42;;
29092;SDS011;16167;48.768;14.984;2022-11-20T05:21:11;70.10;;;29.35;;
29092;SDS011;16167;48.768;14.984;2022-11-20T05:23:39;71.97;;;31.23;;
29092;SDS011;16167;48.768;14.984;2022-11-20T05:26:12;68.38;;;29.48;;
29092;SDS011;16167;48.768;14.984;2022-11-20T05:28:41;70.03;;;28.30;;
29092;SDS011;16167;48.768;14.984;2022-11-20T05:31:10;68.03;;;29.83;;
29092;SDS011;16167;48.768;14.984;2022-11-20T05:33:39;66.10;;;28.95;;
29092;SDS011;16167;48.768;14.984;2022-11-20T05:36:09;74.20;;;29.17;;
29092;SDS011;16167;48.768;14.984;2022-11-20T05:38:37;67.15;;;28.52;;
29092;SDS011;16167;48.768;14.984;2022-11-20T05:41:06;75.38;;;31.20;;
29092;SDS011;16167;48.768;14.984;2022-11-20T05:43:37;65.25;;;28.35;;
29092;SDS011;16167;48.768;14.984;2022-11-20T05:46:06;77.35;;;31.58;;
29092;SDS011;16167;48.768;14.984;2022-11-20T05:51:05;73.10;;;30.25;;
29092;SDS011;16167;48.768;14.984;2022-11-20T05:53:34;70.25;;;30.13;;
29092;SDS011;16167;48.768;14.984;2022-11-20T05:56:04;62.47;;;27.98;;
29092;SDS011;16167;48.768;14.984;2022-11-20T05:58:33;74.72;;;30.42;;
29092;SDS011;16167;48.768;14.984;2022-11-20T06:01:06;64.15;;;28.35;;
29092;SDS011;16167;48.768;14.984;2022-11-20T06:03:36;68.57;;;28.08;;
29092;SDS011;16167;48.768;14.984;2022-11-20T06:06:05;72.15;;;30.00;;
29092;SDS011;16167;48.768;14.984;2022-11-20T06:08:34;73.47;;;29.45;;
29092;SDS011;16167;48.768;14.984;2022-11-20T06:11:06;70.60;;;29.73;;
29092;SDS011;16167;48.768;14.984;2022-11-20T06:13:35;69.00;;;29.85;;
29092;SDS011;16167;48.768;14.984;2022-11-20T06:16:09;69.57;;;30.17;;
29092;SDS011;16167;48.768;14.984;2022-11-20T06:18:38;57.05;;;26.60;;
29092;SDS011;16167;48.768;14.984;2022-11-20T06:21:07;66.07;;;26.77;;
29092;SDS011;16167;48.768;14.984;2022-11-20T06:23:36;70.30;;;29.10;;
29092;SDS011;16167;48.768;14.984;2022-11-20T06:26:05;65.75;;;28.27;;
29092;SDS011;16167;48.768;14.984;2022-11-20T06:28:35;67.40;;;29.88;;
29092;SDS011;16167;48.768;14.984;2022-11-20T06:31:03;71.03;;;30.05;;
29092;SDS011;16167;48.768;14.984;2022-11-20T06:33:32;71.78;;;30.55;;
29092;SDS011;16167;48.768;14.984;2022-11-20T06:36:01;74.15;;;30.45;;
29092;SDS011;16167;48.768;14.984;2022-11-20T06:38:36;87.28;;;36.75;;
29092;SDS011;16167;48.768;14.984;2022-11-20T06:41:04;83.53;;;34.95;;
29092;SDS011;16167;48.768;14.984;2022-11-20T06:43:32;70.90;;;29.65;;
29092;SDS011;16167;48.768;14.984;2022-11-20T06:46:00;76.90;;;31.08;;
29092;SDS011;16167;48.768;14.984;2022-11-20T06:48:28;76.00;;;31.98;;
29092;SDS011;16167;48.768;14.984;2022-11-20T06:50:58;69.88;;;30.65;;
29092;SDS011;16167;48.768;14.984;2022-11-20T06:55:55;67.07;;;28.73;;
29092;SDS011;16167;48.768;14.984;2022-11-20T07:00:53;74.45;;;29.20;;
29092;SDS011;16167;48.768;14.984;2022-11-20T07:03:21;76.55;;;31.42;;
29092;SDS011;16167;48.768;14.984;2022-11-20T07:05:49;78.32;;;32.72;;
29092;SDS011;16167;48.768;14.984;2022-11-20T07:08:19;73.57;;;31.15;;
29092;SDS011;16167;48.768;14.984;2022-11-20T07:10:47;82.25;;;34.35;;
29092;SDS011;16167;48.768;14.984;2022-11-20T07:13:15;112.57;;;44.83;;
29092;SDS011;16167;48.768;14.984;2022-11-20T07:15:43;82.60;;;34.72;;
29092;SDS011;16167;48.768;14.984;2022-11-20T07:18:11;77.97;;;33.30;;
29092;SDS011;16167;48.768;14.984;2022-11-20T07:20:39;69.65;;;31.55;;
29092;SDS011;16167;48.768;14.984;2022-11-20T07:23:07;72.55;;;31.33;;
29092;SDS011;16167;48.768;14.984;2022-11-20T07:25:36;81.00;;;34.63;;
29092;SDS011;16167;48.768;14.984;2022-11-20T07:28:04;79.10;;;34.00;;
29092;SDS011;16167;48.768;14.984;2022-11-20T07:30:32;82.95;;;35.05;;
29092;SDS011;16167;48.768;14.984;2022-11-20T07:33:00;88.63;;;39.65;;
29092;SDS011;16167;48.768;14.984;2022-11-20T07:35:28;79.60;;;38.42;;
29092;SDS011;16167;48.768;14.984;2022-11-20T07:37:56;75.82;;;34.38;;
29092;SDS011;16167;48.768;14.984;2022-11-20T07:40:24;75.07;;;32.83;;
29092;SDS011;16167;48.768;14.984;2022-11-20T07:42:54;75.07;;;33.13;;
29092;SDS011;16167;48.768;14.984;2022-11-20T07:45:23;71.85;;;35.20;;
29092;SDS011;16167;48.768;14.984;2022-11-20T07:47:51;77.32;;;35.92;;
29092;SDS011;16167;48.768;14.984;2022-11-20T07:50:19;68.88;;;29.55;;
29092;SDS011;16167;48.768;14.984;2022-11-20T07:52:47;72.18;;;31.65;;
29092;SDS011;16167;48.768;14.984;2022-11-20T07:55:15;67.93;;;31.02;;
29092;SDS011;16167;48.768;14.984;2022-11-20T07:57:43;69.10;;;30.52;;
29092;SDS011;16167;48.768;14.984;2022-11-20T08:00:13;69.68;;;30.58;;
29092;SDS011;16167;48.768;14.984;2022-11-20T08:02:42;74.50;;;35.05;;
29092;SDS011;16167;48.768;14.984;2022-11-20T08:05:13;75.65;;;31.92;;
29092;SDS011;16167;48.768;14.984;2022-11-20T08:07:41;71.68;;;31.38;;
29092;SDS011;16167;48.768;14.984;2022-11-20T08:10:11;68.32;;;30.48;;
29092;SDS011;16167;48.768;14.984;2022-11-20T08:12:43;64.80;;;29.45;;
29092;SDS011;16167;48.768;14.984;2022-11-20T08:15:31;64.45;;;29.85;;
29092;SDS011;16167;48.768;14.984;2022-11-20T08:18:00;69.43;;;29.83;;
29092;SDS011;16167;48.768;14.984;2022-11-20T08:20:49;64.03;;;28.25;;
29092;SDS011;16167;48.768;14.984;2022-11-20T08:23:17;64.50;;;29.45;;
29092;SDS011;16167;48.768;14.984;2022-11-20T08:25:48;68.07;;;30.08;;
29092;SDS011;16167;48.768;14.984;2022-11-20T08:28:17;75.70;;;31.98;;
29092;SDS011;16167;48.768;14.984;2022-11-20T08:30:49;71.93;;;30.67;;
29092;SDS011;16167;48.768;14.984;2022-11-20T08:33:17;71.53;;;31.58;;
29092;SDS011;16167;48.768;14.984;2022-11-20T08:35:45;68.30;;;31.35;;
29092;SDS011;16167;48.768;14.984;2022-11-20T08:38:13;68.13;;;30.13;;
29092;SDS011;16167;48.768;14.984;2022-11-20T08:40:41;77.35;;;32.33;;
29092;SDS011;16167;48.768;14.984;2022-11-20T08:43:31;73.53;;;31.73;;
29092;SDS011;16167;48.768;14.984;2022-11-20T08:46:01;76.15;;;33.92;;
29092;SDS011;16167;48.768;14.984;2022-11-20T08:48:29;80.45;;;34.88;;
29092;SDS011;16167;48.768;14.984;2022-11-20T08:50:57;77.13;;;31.58;;
29092;SDS011;16167;48.768;14.984;2022-11-20T08:53:25;78.80;;;34.75;;
29092;SDS011;16167;48.768;14.984;2022-11-20T08:55:54;82.15;;;37.03;;
29092;SDS011;16167;48.768;14.984;2022-11-20T08:58:23;78.55;;;36.25;;
29092;SDS011;16167;48.768;14.984;2022-11-20T09:00:52;80.85;;;36.88;;
29092;SDS011;16167;48.768;14.984;2022-11-20T09:03:21;79.90;;;37.40;;
29092;SDS011;16167;48.768;14.984;2022-11-20T09:05:57;82.57;;;39.03;;
29092;SDS011;16167;48.768;14.984;2022-11-20T09:10:55;77.60;;;34.03;;
29092;SDS011;16167;48.768;14.984;2022-11-20T09:13:24;71.63;;;33.22;;
29092;SDS011;16167;48.768;14.984;2022-11-20T09:15:53;78.07;;;36.58;;
29092;SDS011;16167;48.768;14.984;2022-11-20T09:18:23;83.57;;;37.63;;
29092;SDS011;16167;48.768;14.984;2022-11-20T09:20:55;64.85;;;33.10;;
29092;SDS011;16167;48.768;14.984;2022-11-20T09:23:24;73.03;;;35.08;;
29092;SDS011;16167;48.768;14.984;2022-11-20T09:25:52;72.40;;;34.72;;
29092;SDS011;16167;48.768;14.984;2022-11-20T09:30:49;71.68;;;31.13;;
29092;SDS011;16167;48.768;14.984;2022-11-20T09:33:17;68.55;;;31.08;;
29092;SDS011;16167;48.768;14.984;2022-11-20T09:35:47;69.97;;;34.30;;
29092;SDS011;16167;48.768;14.984;2022-11-20T09:38:15;68.03;;;32.88;;
29092;SDS011;16167;48.768;14.984;2022-11-20T09:40:44;62.20;;;30.35;;
29092;SDS011;16167;48.768;14.984;2022-11-20T09:43:18;64.38;;;29.83;;
29092;SDS011;16167;48.768;14.984;2022-11-20T09:45:58;62.20;;;30.25;;
29092;SDS011;16167;48.768;14.984;2022-11-20T09:48:42;62.30;;;31.13;;
29092;SDS011;16167;48.768;14.984;2022-11-20T09:51:30;63.67;;;30.75;;
29092;SDS011;16167;48.768;14.984;2022-11-20T09:56:37;62.15;;;28.70;;
29092;SDS011;16167;48.768;14.984;2022-11-20T09:59:12;60.42;;;29.13;;
29092;SDS011;16167;48.768;14.984;2022-11-20T10:01:49;63.92;;;30.85;;
29092;SDS011;16167;48.768;14.984;2022-11-20T10:04:19;59.38;;;28.60;;
29092;SDS011;16167;48.768;14.984;2022-11-20T10:06:50;60.08;;;29.15;;
29092;SDS011;16167;48.768;14.984;2022-11-20T10:09:48;58.28;;;28.05;;
29092;SDS011;16167;48.768;14.984;2022-11-20T10:12:19;59.60;;;28.92;;
29092;SDS011;16167;48.768;14.984;2022-11-20T10:14:57;62.50;;;31.52;;
29092;SDS011;16167;48.768;14.984;2022-11-20T10:17:41;64.68;;;32.28;;
29092;SDS011;16167;48.768;14.984;2022-11-20T10:20:24;69.00;;;33.15;;
29092;SDS011;16167;48.768;14.984;2022-11-20T10:23:08;69.55;;;33.03;;
29092;SDS011;16167;48.768;14.984;2022-11-20T10:25:54;60.78;;;29.67;;
29092;SDS011;16167;48.768;14.984;2022-11-20T10:28:30;55.88;;;29.92;;
29092;SDS011;16167;48.768;14.984;2022-11-20T10:31:25;58.85;;;30.40;;
29092;SDS011;16167;48.768;14.984;2022-11-20T10:33:57;59.20;;;29.92;;
29092;SDS011;16167;48.768;14.984;2022-11-20T10:36:38;68.50;;;33.05;;
29092;SDS011;16167;48.768;14.984;2022-11-20T10:39:14;61.75;;;31.42;;
29092;SDS011;16167;48.768;14.984;2022-11-20T10:41:49;63.83;;;32.85;;
29092;SDS011;16167;48.768;14.984;2022-11-20T10:44:20;66.50;;;33.72;;
29092;SDS011;16167;48.768;14.984;2022-11-20T10:47:03;59.33;;;32.85;;
29092;SDS011;16167;48.768;14.984;2022-11-20T10:49:32;60.95;;;34.25;;
29092;SDS011;16167;48.768;14.984;2022-11-20T10:52:04;59.40;;;33.75;;
29092;SDS011;16167;48.768;14.984;2022-11-20T10:54:40;63.72;;;35.63;;
29092;SDS011;16167;48.768;14.984;2022-11-20T10:57:17;64.10;;;35.47;;
29092;SDS011;16167;48.768;14.984;2022-11-20T11:00:03;63.83;;;33.58;;
29092;SDS011;16167;48.768;14.984;2022-11-20T11:02:34;62.63;;;33.50;;
29092;SDS011;16167;48.768;14.984;2022-11-20T11:05:10;52.65;;;29.67;;
29092;SDS011;16167;48.768;14.984;2022-11-20T11:07:44;56.28;;;32.33;;
29092;SDS011;16167;48.768;14.984;2022-11-20T11:10:18;60.58;;;34.28;;
29092;SDS011;16167;48.768;14.984;2022-11-20T11:12:49;67.55;;;35.17;;
29092;SDS011;16167;48.768;14.984;2022-11-20T11:15:24;64.72;;;35.10;;
29092;SDS011;16167;48.768;14.984;2022-11-20T11:17:54;62.60;;;33.78;;
29092;SDS011;16167;48.768;14.984;2022-11-20T11:20:23;46.90;;;24.13;;
29092;SDS011;16167;48.768;14.984;2022-11-20T11:22:53;59.08;;;31.58;;
29092;SDS011;16167;48.768;14.984;2022-11-20T11:25:27;64.05;;;35.60;;
29092;SDS011;16167;48.768;14.984;2022-11-20T11:27:57;33.90;;;19.20;;
29092;SDS011;16167;48.768;14.984;2022-11-20T11:30:28;41.63;;;26.60;;
29092;SDS011;16167;48.768;14.984;2022-11-20T11:33:04;29.92;;;19.92;;
29092;SDS011;16167;48.768;14.984;2022-11-20T11:35:38;29.17;;;18.52;;
29092;SDS011;16167;48.768;14.984;2022-11-20T11:38:17;34.42;;;21.40;;
29092;SDS011;16167;48.768;14.984;2022-11-20T11:40:52;45.83;;;25.25;;
29092;SDS011;16167;48.768;14.984;2022-11-20T11:43:24;43.97;;;26.15;;
29092;SDS011;16167;48.768;14.984;2022-11-20T11:46:27;41.75;;;25.40;;
29092;SDS011;16167;48.768;14.984;2022-11-20T11:48:59;43.00;;;24.85;;
29092;SDS011;16167;48.768;14.984;2022-11-20T11:51:33;26.65;;;17.08;;
29092;SDS011;16167;48.768;14.984;2022-11-20T11:54:10;20.10;;;13.73;;
29092;SDS011;16167;48.768;14.984;2022-11-20T11:56:44;9.02;;;6.05;;
29092;SDS011;16167;48.768;14.984;2022-11-20T11:59:15;5.57;;;4.43;;
29092;SDS011;16167;48.768;14.984;2022-11-20T12:01:53;10.23;;;6.65;;
29092;SDS011;16167;48.768;14.984;2022-11-20T12:04:28;10.07;;;6.32;;
29092;SDS011;16167;48.768;14.984;2022-11-20T12:07:10;11.63;;;6.97;;
29092;SDS011;16167;48.768;14.984;2022-11-20T12:10:02;9.48;;;6.35;;
29092;SDS011;16167;48.768;14.984;2022-11-20T12:12:33;10.88;;;6.43;;
29092;SDS011;16167;48.768;14.984;2022-11-20T12:15:06;6.18;;;4.47;;
29092;SDS011;16167;48.768;14.984;2022-11-20T12:17:39;5.45;;;3.85;;
29092;SDS011;16167;48.768;14.984;2022-11-20T12:20:10;5.57;;;4.30;;
29092;SDS011;16167;48.768;14.984;2022-11-20T12:22:41;4.40;;;3.53;;
29092;SDS011;16167;48.768;14.984;2022-11-20T12:25:18;4.32;;;3.63;;
29092;SDS011;16167;48.768;14.984;2022-11-20T12:27:54;5.55;;;4.18;;
29092;SDS011;16167;48.768;14.984;2022-11-20T12:30:47;4.18;;;3.67;;
29092;SDS011;16167;48.768;14.984;2022-11-20T12:36:19;4.32;;;3.05;;
29092;SDS011;16167;48.768;14.984;2022-11-20T12:38:59;3.45;;;3.13;;
29092;SDS011;16167;48.768;14.984;2022-11-20T12:41:51;4.88;;;3.28;;
29092;SDS011;16167;48.768;14.984;2022-11-20T12:45:00;4.07;;;3.13;;
29092;SDS011;16167;48.768;14.984;2022-11-20T12:47:47;3.92;;;2.90;;
29092;SDS011;16167;48.768;14.984;2022-11-20T12:50:32;5.07;;;2.92;;
29092;SDS011;16167;48.768;14.984;2022-11-20T12:53:31;2.80;;;2.47;;
29092;SDS011;16167;48.768;14.984;2022-11-20T12:56:11;3.80;;;2.72;;
29092;SDS011;16167;48.768;14.984;2022-11-20T12:58:51;2.78;;;2.58;;
29092;SDS011;16167;48.768;14.984;2022-11-20T13:01:35;3.60;;;2.80;;
29092;SDS011;16167;48.768;14.984;2022-11-20T13:04:13;3.55;;;2.83;;
29092;SDS011;16167;48.768;14.984;2022-11-20T13:06:51;3.53;;;2.70;;
29092;SDS011;16167;48.768;14.984;2022-11-20T13:09:22;5.63;;;3.33;;
29092;SDS011;16167;48.768;14.984;2022-11-20T13:11:53;3.28;;;2.75;;
29092;SDS011;16167;48.768;14.984;2022-11-20T13:14:32;3.20;;;2.88;;
29092;SDS011;16167;48.768;14.984;2022-11-20T13:17:08;4.38;;;3.08;;
29092;SDS011;16167;48.768;14.984;2022-11-20T13:19:40;3.88;;;3.28;;
29092;SDS011;16167;48.768;14.984;2022-11-20T13:22:08;5.25;;;3.08;;
29092;SDS011;16167;48.768;14.984;2022-11-20T13:24:37;3.10;;;2.80;;
29092;SDS011;16167;48.768;14.984;2022-11-20T13:27:17;4.80;;;3.38;;
29092;SDS011;16167;48.768;14.984;2022-11-20T13:29:47;3.92;;;3.20;;
29092;SDS011;16167;48.768;14.984;2022-11-20T13:32:29;5.55;;;3.95;;
29092;SDS011;16167;48.768;14.984;2022-11-20T13:34:59;5.68;;;4.18;;
29092;SDS011;16167;48.768;14.984;2022-11-20T13:37:29;3.92;;;3.35;;
29092;SDS011;16167;48.768;14.984;2022-11-20T13:43:00;3.75;;;3.15;;
29092;SDS011;16167;48.768;14.984;2022-11-20T13:45:32;3.90;;;3.05;;
29092;SDS011;16167;48.768;14.984;2022-11-20T13:48:02;5.20;;;3.43;;
29092;SDS011;16167;48.768;14.984;2022-11-20T13:50:46;3.72;;;3.28;;
29092;SDS011;16167;48.768;14.984;2022-11-20T13:53:28;5.18;;;3.20;;
29092;SDS011;16167;48.768;14.984;2022-11-20T13:56:07;4.20;;;3.28;;
29092;SDS011;16167;48.768;14.984;2022-11-20T13:58:44;4.50;;;3.47;;
29092;SDS011;16167;48.768;14.984;2022-11-20T14:01:21;6.93;;;4.65;;
29092;SDS011;16167;48.768;14.984;2022-11-20T14:03:53;5.93;;;3.85;;
29092;SDS011;16167;48.768;14.984;2022-11-20T14:06:32;5.65;;;4.15;;
29092;SDS011;16167;48.768;14.984;2022-11-20T14:09:10;6.47;;;3.83;;
29092;SDS011;16167;48.768;14.984;2022-11-20T14:11:45;6.30;;;4.45;;
29092;SDS011;16167;48.768;14.984;2022-11-20T14:14:15;8.75;;;5.65;;
29092;SDS011;16167;48.768;14.984;2022-11-20T14:16:45;5.78;;;3.60;;
29092;SDS011;16167;48.768;14.984;2022-11-20T14:22:07;7.45;;;4.07;;
29092;SDS011;16167;48.768;14.984;2022-11-20T14:24:37;4.72;;;3.15;;
29092;SDS011;16167;48.768;14.984;2022-11-20T14:27:09;4.80;;;3.67;;
29092;SDS011;16167;48.768;14.984;2022-11-20T14:29:40;5.35;;;3.75;;
29092;SDS011;16167;48.768;14.984;2022-11-20T14:32:08;6.13;;;3.80;;
29092;SDS011;16167;48.768;14.984;2022-11-20T14:34:39;7.43;;;4.43;;
29092;SDS011;16167;48.768;14.984;2022-11-20T14:37:10;6.95;;;4.38;;
29092;SDS011;16167;48.768;14.984;2022-11-20T14:39:42;5.13;;;3.60;;
29092;SDS011;16167;48.768;14.984;2022-11-20T14:42:17;5.72;;;4.25;;
29092;SDS011;16167;48.768;14.984;2022-11-20T14:44:47;6.00;;;4.60;;
29092;SDS011;16167;48.768;14.984;2022-11-20T14:49:47;4.97;;;3.88;;
29092;SDS011;16167;48.768;14.984;2022-11-20T14:52:17;8.52;;;4.88;;
29092;SDS011;16167;48.768;14.984;2022-11-20T14:54:46;7.07;;;4.82;;
29092;SDS011;16167;48.768;14.984;2022-11-20T14:57:23;7.68;;;5.00;;
29092;SDS011;16167;48.768;14.984;2022-11-20T15:00:03;14.48;;;5.75;;
29092;SDS011;16167;48.768;14.984;2022-11-20T15:02:33;10.07;;;5.43;;
29092;SDS011;16167;48.768;14.984;2022-11-20T15:05:02;8.63;;;5.47;;
29092;SDS011;16167;48.768;14.984;2022-11-20T15:07:31;6.53;;;5.25;;
29092;SDS011;16167;48.768;14.984;2022-11-20T15:10:02;11.93;;;6.80;;
29092;SDS011;16167;48.768;14.984;2022-11-20T15:12:32;13.95;;;6.70;;
29092;SDS011;16167;48.768;14.984;2022-11-20T15:15:03;12.80;;;6.97;;
29092;SDS011;16167;48.768;14.984;2022-11-20T15:23:20;10.40;;;6.15;;